Hovedside
METAR-TAF:

METAR-TAF

Lufthavner :

Ivalo lufthavn

Ivalo, Finland

breddegrad: 68-37N, lengdegrad: 027-25E, høyde over havet: 147 m

Gjeldene værobservasjon

Denne rapporten ble laget for 15 minutter siden, klokken 12:50 UTC
Vind 5 kt fra Øst-nordøst, skiftende mellom Nord-nordøst og Øst-sørøst
Temperatur 15°C
Luftfuktighet 48%
Trykk 1012 hPa
Sikt 10 km eller mer
Brutte skyer i en høyde av 4900 ft

METAR: EFIV 151250Z AUTO 07005KT 030V110 9999 BKN049 15/04 Q1012

Tid: 16:05 (13:05 UTC)

Varsel

Denne rapporten ble laget for 1 time og 37 minutter siden, klokken 11:28 UTC
Varsel gyldig fra 15. klokken 12 UTC til 15. klokken 16 UTC
Vind 2 kt fra skiftende retning
Sikt 10 km eller mer
ingen skyer under 1500 m og ingen bygeskyer
Sannsynlighet 30%
fra 15. klokken 12 UTC til 15. klokken 16 UTC
Få skyer i en høyde av 3000 ft, Tårnskyer (cumulus).

TAF: EFIV 151128Z 1512/1516 VRB02KT CAVOK PROB30 1512/1516 FEW030TCU

Værobservasjoner og værvarsel for over 4000 flyplasser (METAR- og TAF-rapporter).

Tilgjengelige stasjoner er representert av de røde og gule prikkene på kartet.

Hold musepekeren over prikken for å se navnet på stasjonen.

Klikk så for å se værobservasjoner og -varsler.

For å forandre kartet kan du klikke på den grønne knappen med svart kryss for å zoome inn, på den grønne knappen med strek for å zoome ut, eller på de grønne pilene for å se tilstøtende kart.


METAR-TAF: